Time;durP1;ratioP1;P1;durP2;ratioP2;P2;SDS_P1;SDS_P2;PMS_P1;PMS_P2;Temp;Humidity;BMP_temperature;BMP_pressure;BME280_temperature;BME280_humidity;BME280_pressure;Samples;Min_cycle;Max_cycle;Signal;HPM_P1;HPM_P2
2022/06/09 00:00:20;;;;;;;14.20;12.50;;;;;;;16.01;100.00;95990.44;107393;1271;154043;-76
2022/06/09 00:03:16;;;;;;;15.30;12.30;;;;;;;16.03;100.00;96006.02;107452;1271;33645;-76
2022/06/09 00:05:47;;;;;;;10.50;8.00;;;;;;;16.07;100.00;96035.64;105876;1271;2036962;-76
2022/06/09 00:08:22;;;;;;;8.60;6.60;;;;;;;15.98;100.00;96075.20;107524;1271;48808;-75
2022/06/09 00:10:57;;;;;;;7.20;5.80;;;;;;;15.80;100.00;96079.79;106098;1271;1799429;-76
2022/06/09 00:20:51;;;;;;;7.90;5.60;;;;;;;15.26;100.00;96012.30;107471;1271;47276;-75
2022/06/09 00:23:23;;;;;;;11.50;6.70;;;;;;;15.36;100.00;95987.02;107367;1271;150730;-76
2022/06/09 00:25:57;;;;;;;10.80;6.90;;;;;;;15.42;100.00;95968.31;107212;1271;123459;-75
2022/06/09 00:28:28;;;;;;;7.60;6.20;;;;;;;15.47;100.00;95966.14;107393;1271;43337;-74
2022/06/09 00:30:59;;;;;;;8.10;6.10;;;;;;;15.53;100.00;95969.34;107365;1271;76130;-75
2022/06/09 00:33:30;;;;;;;13.30;6.70;;;;;;;15.59;100.00;95974.66;107433;1271;49881;-75
2022/06/09 00:36:02;;;;;;;8.80;5.30;;;;;;;15.53;100.00;95974.08;107448;1271;57941;-75
2022/06/09 00:38:33;;;;;;;7.10;3.90;;;;;;;15.41;100.00;95972.18;107418;1271;67340;-75
2022/06/09 00:41:05;;;;;;;5.50;3.90;;;;;;;15.35;100.00;95968.20;107538;1271;68536;-74
2022/06/09 00:43:36;;;;;;;7.60;4.40;;;;;;;15.33;100.00;95959.59;107501;1271;79287;-74
2022/06/09 00:46:14;;;;;;;5.40;4.40;;;;;;;15.29;100.00;95944.32;107498;1271;49136;-74
2022/06/09 00:48:49;;;;;;;7.50;4.80;;;;;;;15.27;100.00;95941.26;107502;1271;47321;-74
2022/06/09 00:51:33;;;;;;;10.40;4.90;;;;;;;15.27;100.00;95940.91;107642;1271;35465;-74
2022/06/09 00:54:09;;;;;;;6.70;4.50;;;;;;;15.32;100.00;95938.16;107531;1271;47793;-74
2022/06/09 00:56:47;;;;;;;7.60;4.60;;;;;;;15.37;100.00;95937.63;107480;1271;56544;-74
2022/06/09 00:59:22;;;;;;;5.60;4.40;;;;;;;15.42;100.00;95930.32;107451;1271;62774;-74
2022/06/09 01:01:53;;;;;;;6.40;4.50;;;;;;;15.45;100.00;95932.17;107480;1271;41726;-75
2022/06/09 01:04:26;;;;;;;5.80;4.30;;;;;;;15.44;100.00;95930.39;107502;1271;43983;-75
2022/06/09 01:07:03;;;;;;;7.00;4.30;;;;;;;15.45;100.00;95923.09;107487;1271;60892;-74
2022/06/09 01:09:35;;;;;;;5.80;3.80;;;;;;;15.48;100.00;95920.81;107548;1271;40937;-74
2022/06/09 01:12:27;;;;;;;6.30;4.10;;;;;;;15.45;100.00;95916.68;107491;1271;43973;-74
2022/06/09 01:15:01;;;;;;;4.80;3.10;;;;;;;15.45;100.00;95918.90;107469;1271;66269;-75
2022/06/09 01:17:52;;;;;;;9.00;4.40;;;;;;;15.49;100.00;95923.30;107532;1271;55273;-74
2022/06/09 01:20:37;;;;;;;8.10;3.80;;;;;;;15.53;100.00;95930.05;107482;1271;56757;-74
2022/06/09 01:23:39;;;;;;;5.00;3.40;;;;;;;15.55;100.00;95928.24;107551;1271;35658;-74
2022/06/09 01:26:52;;;;;;;5.20;3.40;;;;;;;15.57;100.00;95929.73;107461;1271;42887;-75
2022/06/09 01:29:43;;;;;;;5.50;3.80;;;;;;;15.52;100.00;95933.42;107522;1271;35560;-74
2022/06/09 01:32:24;;;;;;;5.40;4.10;;;;;;;15.44;100.00;95927.05;107474;1271;43149;-75
2022/06/09 01:35:06;;;;;;;5.90;3.90;;;;;;;15.49;100.00;95926.16;107481;1271;31318;-74
2022/06/09 01:37:41;;;;;;;5.20;3.80;;;;;;;15.51;100.00;95922.19;107513;1271;56881;-75
2022/06/09 01:40:16;;;;;;;6.20;4.10;;;;;;;15.45;100.00;95920.34;107549;1271;34114;-75
2022/06/09 01:42:49;;;;;;;6.00;3.80;;;;;;;15.36;100.00;95914.40;107488;1271;54077;-74
2022/06/09 01:45:23;;;;;;;7.40;3.90;;;;;;;15.41;100.00;95912.73;107591;1271;30707;-74
2022/06/09 01:48:00;;;;;;;4.90;3.90;;;;;;;15.42;100.00;95913.29;107458;1271;45098;-75
2022/06/09 01:50:36;;;;;;;6.10;3.80;;;;;;;15.32;100.00;95906.45;107486;1271;63374;-75
2022/06/09 01:53:13;;;;;;;5.50;4.10;;;;;;;15.23;100.00;95899.04;107492;1270;50528;-74
2022/06/09 01:55:49;;;;;;;7.30;3.60;;;;;;;15.26;100.00;95895.75;107553;1271;35454;-74
2022/06/09 01:58:25;;;;;;;4.90;3.80;;;;;;;15.36;100.00;95900.48;107546;1271;64858;-74
2022/06/09 02:00:59;;;;;;;7.20;4.10;;;;;;;15.44;100.00;95910.46;107476;1271;38131;-75
2022/06/09 02:03:36;;;;;;;5.20;3.60;;;;;;;15.49;100.00;95907.83;107558;1271;36652;-75
2022/06/09 02:06:10;;;;;;;5.40;3.70;;;;;;;15.49;100.00;95901.64;107514;1271;41797;-74
2022/06/09 02:08:42;;;;;;;4.80;3.50;;;;;;;15.36;100.00;95897.81;107494;1271;44964;-74
2022/06/09 02:11:15;;;;;;;6.00;3.70;;;;;;;15.36;100.00;95891.34;107502;1271;35971;-74
2022/06/09 02:13:51;;;;;;;3.90;3.10;;;;;;;15.44;100.00;95886.58;107550;1270;46042;-74
2022/06/09 02:16:24;;;;;;;7.00;3.60;;;;;;;15.50;100.00;95884.73;107605;1270;33248;-74
2022/06/09 02:18:57;;;;;;;5.50;3.70;;;;;;;15.54;100.00;95889.62;107520;1270;47422;-74
2022/06/09 02:21:33;;;;;;;5.40;3.60;;;;;;;15.53;100.00;95893.31;107599;1270;37895;-75
2022/06/09 02:24:04;;;;;;;5.10;4.20;;;;;;;15.42;100.00;95893.48;107542;1271;44953;-74
2022/06/09 02:26:35;;;;;;;7.90;4.50;;;;;;;15.26;100.00;95892.35;107526;1271;49047;-74
2022/06/09 02:29:06;;;;;;;6.70;4.20;;;;;;;15.16;100.00;95894.08;107502;1271;37496;-74
2022/06/09 02:31:38;;;;;;;5.30;3.70;;;;;;;15.16;100.00;95897.98;107478;1271;38489;-74
2022/06/09 02:34:09;;;;;;;5.10;3.40;;;;;;;15.18;100.00;95900.13;107545;1270;35765;-74
2022/06/09 02:36:41;;;;;;;7.40;4.00;;;;;;;15.18;100.00;95905.38;107488;1270;56464;-74
2022/06/09 02:39:12;;;;;;;6.60;3.90;;;;;;;15.17;100.00;95905.31;107513;1271;31321;-74
2022/06/09 02:41:43;;;;;;;5.20;4.00;;;;;;;15.16;100.00;95907.05;107502;1271;36287;-74
2022/06/09 02:44:13;;;;;;;4.70;3.70;;;;;;;15.18;100.00;95908.95;107517;1270;46023;-74
2022/06/09 02:46:48;;;;;;;4.00;3.50;;;;;;;15.21;100.00;95908.26;107608;1270;46179;-74
2022/06/09 02:49:19;;;;;;;6.10;3.80;;;;;;;15.24;100.00;95916.05;107577;1270;41982;-74
2022/06/09 02:51:50;;;;;;;6.00;3.80;;;;;;;15.27;100.00;95914.20;107487;1271;57767;-74
2022/06/09 02:54:21;;;;;;;6.40;3.50;;;;;;;15.29;100.00;95912.27;107538;1271;42866;-74
2022/06/09 02:56:52;;;;;;;5.10;4.20;;;;;;;15.29;100.00;95909.45;107551;1271;42814;-74
2022/06/09 02:59:23;;;;;;;6.10;3.80;;;;;;;15.27;100.00;95906.04;107542;1271;38797;-75
2022/06/09 03:01:55;;;;;;;4.40;4.00;;;;;;;15.28;100.00;95909.71;107446;1271;61009;-75
2022/06/09 03:04:26;;;;;;;7.10;4.60;;;;;;;15.31;100.00;95911.04;107545;1270;46737;-74
2022/06/09 03:06:57;;;;;;;4.90;3.70;;;;;;;15.38;100.00;95907.06;107543;1271;45031;-75
2022/06/09 03:09:31;;;;;;;4.60;3.70;;;;;;;15.49;100.00;95904.53;107484;1271;35250;-75
2022/06/09 03:12:02;;;;;;;6.20;3.50;;;;;;;15.59;100.00;95909.36;107508;1270;36183;-74
2022/06/09 03:14:34;;;;;;;4.10;3.40;;;;;;;15.67;100.00;95907.09;107470;1271;52445;-75
2022/06/09 03:17:06;;;;;;;4.80;3.70;;;;;;;15.69;100.00;95908.80;107515;1269;34624;-74
2022/06/09 03:19:38;;;;;;;5.10;3.70;;;;;;;15.70;100.00;95909.47;107517;1270;42368;-73
2022/06/09 03:22:09;;;;;;;5.80;4.00;;;;;;;15.78;100.00;95910.88;107565;1270;41591;-75
2022/06/09 03:24:40;;;;;;;5.50;3.40;;;;;;;15.76;100.00;95908.75;107564;1270;42055;-74
2022/06/09 03:27:11;;;;;;;4.70;3.90;;;;;;;15.80;100.00;95912.17;107559;1270;36967;-74
2022/06/09 03:29:43;;;;;;;4.30;3.90;;;;;;;15.84;100.00;95911.33;107550;1270;41581;-74
2022/06/09 03:32:14;;;;;;;4.40;3.80;;;;;;;15.90;100.00;95908.77;107564;1270;31942;-74
2022/06/09 03:34:45;;;;;;;7.10;4.50;;;;;;;15.97;100.00;95907.05;107397;1271;75267;-74
2022/06/09 03:37:18;;;;;;;4.40;4.00;;;;;;;16.04;100.00;95904.45;107561;1270;38293;-74
2022/06/09 03:39:49;;;;;;;4.90;4.10;;;;;;;16.09;100.00;95901.42;107601;1270;34367;-74
2022/06/09 03:42:20;;;;;;;6.70;5.10;;;;;;;16.15;100.00;95901.98;107620;1270;43751;-74
2022/06/09 03:44:51;;;;;;;5.60;4.60;;;;;;;16.14;100.00;95896.60;107564;1270;71515;-74
2022/06/09 03:47:24;;;;;;;5.30;4.50;;;;;;;16.14;100.00;95899.05;107570;1271;44736;-74
2022/06/09 03:49:55;;;;;;;4.80;4.20;;;;;;;16.19;100.00;95900.30;107533;1270;33358;-75
2022/06/09 03:52:26;;;;;;;6.20;4.20;;;;;;;16.22;100.00;95905.45;107544;1270;39964;-75
2022/06/09 03:55:06;;;;;;;5.50;4.40;;;;;;;16.13;100.00;95908.64;107549;1270;44402;-75
2022/06/09 03:57:37;;;;;;;5.10;4.30;;;;;;;16.07;100.00;95905.38;107641;1270;35014;-74
2022/06/09 04:00:11;;;;;;;5.40;4.70;;;;;;;16.11;100.00;95907.05;107538;1270;42122;-74
2022/06/09 04:02:42;;;;;;;6.50;5.00;;;;;;;16.17;100.00;95909.24;107580;1270;41331;-74
2022/06/09 04:05:15;;;;;;;7.80;5.10;;;;;;;16.27;100.00;95911.25;107542;1270;56546;-74
2022/06/09 04:07:46;;;;;;;6.50;4.60;;;;;;;16.39;100.00;95914.88;107447;1271;52977;-74
2022/06/09 04:10:20;;;;;;;7.00;4.70;;;;;;;16.48;100.00;95909.36;107460;1271;50898;-74
2022/06/09 04:12:51;;;;;;;6.00;5.40;;;;;;;16.56;100.00;95908.02;107591;1270;43499;-74
2022/06/09 04:15:23;;;;;;;5.70;5.10;;;;;;;16.66;100.00;95905.84;107590;1271;31865;-74
2022/06/09 04:17:55;;;;;;;7.60;4.80;;;;;;;16.72;100.00;95898.45;107494;1271;40162;-75
2022/06/09 04:20:28;;;;;;;5.90;4.70;;;;;;;16.79;100.00;95898.23;107506;1271;40751;-74
2022/06/09 04:22:59;;;;;;;7.80;6.60;;;;;;;16.85;100.00;95885.94;107492;1271;48556;-74
2022/06/09 04:25:30;;;;;;;9.90;8.80;;;;;;;16.89;100.00;95881.94;107469;1271;39643;-75
2022/06/09 04:28:09;;;;;;;13.40;9.10;;;;;;;16.94;100.00;95879.73;107536;1270;36226;-74
2022/06/09 04:30:40;;;;;;;15.00;12.80;;;;;;;17.00;100.00;95880.02;107517;1270;42435;-74
2022/06/09 04:33:11;;;;;;;14.80;12.10;;;;;;;17.08;100.00;95873.48;107500;1271;34814;-75
2022/06/09 04:35:42;;;;;;;15.90;13.20;;;;;;;17.16;100.00;95870.80;107500;1270;48352;-74
2022/06/09 04:38:14;;;;;;;17.60;15.30;;;;;;;17.18;100.00;95870.21;107536;1271;31805;-74
2022/06/09 04:40:45;;;;;;;14.00;12.50;;;;;;;17.19;100.00;95876.10;107413;1271;45883;-74
2022/06/09 04:43:16;;;;;;;12.70;11.30;;;;;;;17.15;100.00;95887.08;107494;1270;36076;-74
2022/06/09 04:45:47;;;;;;;11.60;8.80;;;;;;;17.24;100.00;95890.77;107378;1271;79843;-75
2022/06/09 04:48:18;;;;;;;8.70;6.70;;;;;;;17.30;100.00;95887.75;107489;1271;37156;-74
2022/06/09 04:50:50;;;;;;;6.70;6.00;;;;;;;17.32;100.00;95890.88;107562;1271;46237;-74
2022/06/09 04:53:21;;;;;;;8.10;7.10;;;;;;;17.32;100.00;95894.53;107506;1271;48946;-75
2022/06/09 04:55:52;;;;;;;11.40;8.30;;;;;;;17.37;100.00;95892.54;107572;1270;36373;-75
2022/06/09 04:58:23;;;;;;;11.10;8.90;;;;;;;17.42;100.00;95894.15;107549;1270;63376;-75
2022/06/09 05:00:55;;;;;;;9.90;7.00;;;;;;;17.45;100.00;95886.98;107449;1270;42187;-75
2022/06/09 05:03:26;;;;;;;8.50;7.30;;;;;;;17.45;100.00;95887.71;107471;1270;45982;-75
2022/06/09 05:05:57;;;;;;;11.20;8.50;;;;;;;17.30;100.00;95887.30;107476;1271;64240;-74
2022/06/09 05:08:28;;;;;;;8.50;7.50;;;;;;;17.11;100.00;95892.32;107437;1271;59488;-75
2022/06/09 05:10:59;;;;;;;10.90;9.60;;;;;;;16.99;100.00;95896.08;107517;1270;34601;-74
2022/06/09 05:13:30;;;;;;;11.10;9.80;;;;;;;17.01;100.00;95895.14;107421;1271;54833;-75
2022/06/09 05:16:02;;;;;;;10.50;9.20;;;;;;;17.14;100.00;95887.58;107544;1270;34994;-74
2022/06/09 05:18:34;;;;;;;11.10;9.10;;;;;;;17.28;100.00;95890.30;107334;1270;85094;-75
2022/06/09 05:21:07;;;;;;;11.00;9.70;;;;;;;17.36;100.00;95894.75;107511;1270;36803;-75
2022/06/09 05:23:39;;;;;;;12.50;10.30;;;;;;;17.42;100.00;95902.09;107395;1270;59330;-74
2022/06/09 05:26:10;;;;;;;11.60;10.20;;;;;;;17.33;100.00;95901.31;107539;1270;34062;-74
2022/06/09 05:28:42;;;;;;;13.90;11.30;;;;;;;17.22;100.00;95897.61;107334;1270;80380;-74
2022/06/09 05:31:13;;;;;;;14.00;11.50;;;;;;;17.16;100.00;95900.81;107453;1270;55763;-75
2022/06/09 05:33:44;;;;;;;13.90;12.30;;;;;;;17.17;100.00;95898.77;107370;1270;79646;-74
2022/06/09 05:36:15;;;;;;;14.40;12.10;;;;;;;17.26;100.00;95900.42;107613;1270;38467;-75
2022/06/09 05:47:11;;;;;;;23.30;17.40;;;;;;;18.48;100.00;95906.98;107492;1271;36536;-75
2022/06/09 05:49:47;;;;;;;19.50;16.90;;;;;;;19.11;100.00;95904.48;107382;1271;80998;-75
2022/06/09 05:52:22;;;;;;;20.40;18.10;;;;;;;20.08;100.00;95908.67;107500;1270;65325;-75
2022/06/09 05:54:54;;;;;;;20.00;17.30;;;;;;;20.10;100.00;95907.58;107347;1271;78054;-76
2022/06/09 05:57:27;;;;;;;22.40;19.10;;;;;;;19.83;99.34;95911.66;107501;1270;60898;-76
2022/06/09 05:59:58;;;;;;;23.30;19.80;;;;;;;19.61;98.70;95910.43;107476;1270;40099;-75
2022/06/09 06:02:30;;;;;;;22.50;19.70;;;;;;;19.27;97.70;95914.76;107077;1270;109049;-75
2022/06/09 06:05:01;;;;;;;22.00;19.60;;;;;;;18.98;98.17;95918.27;107399;1271;109480;-75
2022/06/09 06:07:32;;;;;;;23.10;19.80;;;;;;;18.81;98.82;95910.87;107191;1271;120322;-75
2022/06/09 06:10:04;;;;;;;24.00;20.80;;;;;;;18.85;99.52;95913.35;107461;1271;73819;-75
2022/06/09 06:12:35;;;;;;;22.80;18.70;;;;;;;18.92;99.74;95914.60;107078;1270;154634;-75
2022/06/09 06:15:08;;;;;;;22.50;19.60;;;;;;;18.99;99.95;95914.29;107408;1270;69314;-75
2022/06/09 06:17:39;;;;;;;22.40;18.60;;;;;;;19.05;99.97;95914.36;107319;1270;108426;-75
2022/06/09 06:20:13;;;;;;;22.30;18.00;;;;;;;19.12;99.83;95914.88;107299;1271;106948;-75
2022/06/09 06:22:44;;;;;;;22.10;18.70;;;;;;;19.17;99.81;95914.08;107487;1270;38930;-75
2022/06/09 06:25:16;;;;;;;21.10;18.60;;;;;;;19.21;99.74;95916.17;107193;1270;127513;-75
2022/06/09 06:27:47;;;;;;;20.90;17.80;;;;;;;19.21;99.15;95918.17;107471;1271;32205;-75
2022/06/09 06:30:19;;;;;;;22.20;18.10;;;;;;;19.20;99.09;95917.06;107179;1270;121026;-74
2022/06/09 06:32:50;;;;;;;20.50;18.10;;;;;;;19.26;99.52;95919.79;107582;1271;35513;-75
2022/06/09 06:35:22;;;;;;;21.80;19.40;;;;;;;19.27;98.97;95919.59;107310;1270;144341;-75
2022/06/09 06:37:53;;;;;;;22.40;19.90;;;;;;;19.32;99.07;95920.11;107552;1271;62887;-75
2022/06/09 06:40:25;;;;;;;22.00;19.60;;;;;;;19.39;98.66;95919.85;107186;1270;122496;-76
2022/06/09 06:42:56;;;;;;;24.50;21.80;;;;;;;19.21;96.74;95922.07;107505;1270;49105;-75
2022/06/09 06:45:27;;;;;;;24.00;21.10;;;;;;;18.95;96.97;95917.73;107188;1270;181779;-75
2022/06/09 06:47:59;;;;;;;21.80;19.20;;;;;;;19.02;98.36;95910.59;107426;1270;62835;-76
2022/06/09 06:50:31;;;;;;;22.10;19.00;;;;;;;19.14;98.28;95913.46;107413;1270;98922;-75
2022/06/09 06:53:02;;;;;;;21.20;19.00;;;;;;;19.28;98.59;95912.11;107496;1270;113094;-75
2022/06/09 06:55:34;;;;;;;20.20;18.10;;;;;;;19.38;98.50;95914.77;105890;1270;1875005;-76
2022/06/09 06:58:05;;;;;;;22.60;19.50;;;;;;;19.49;98.34;95909.34;107487;1271;54752;-75
2022/06/09 07:00:38;;;;;;;21.90;18.80;;;;;;;19.55;97.69;95910.31;107327;1271;112552;-76
2022/06/09 07:03:10;;;;;;;20.70;18.00;;;;;;;19.62;97.37;95909.15;107415;1269;79465;-75
2022/06/09 07:05:42;;;;;;;21.30;19.10;;;;;;;19.69;96.99;95906.45;107378;1270;161850;-75
2022/06/09 07:08:16;;;;;;;21.50;19.20;;;;;;;19.75;96.65;95908.66;107398;1270;132250;-75
2022/06/09 07:10:48;;;;;;;22.80;19.80;;;;;;;19.84;96.43;95908.31;107546;1270;34169;-75
2022/06/09 07:13:19;;;;;;;21.10;17.80;;;;;;;19.85;95.60;95910.55;107546;1270;69582;-76
2022/06/09 07:15:51;;;;;;;21.90;17.50;;;;;;;19.76;94.63;95911.29;107469;1270;122911;-76
2022/06/09 07:18:22;;;;;;;19.90;17.40;;;;;;;19.75;94.96;95912.81;107416;1270;110400;-75
2022/06/09 07:20:53;;;;;;;20.70;18.60;;;;;;;19.79;94.79;95911.02;107381;1271;74408;-75
2022/06/09 07:23:26;;;;;;;20.20;18.10;;;;;;;19.51;92.99;95908.45;107361;1270;153786;-76
2022/06/09 07:25:58;;;;;;;20.20;17.80;;;;;;;19.28;93.01;95909.64;107531;1270;33812;-76
2022/06/09 07:28:30;;;;;;;21.20;19.00;;;;;;;19.04;93.18;95905.05;106977;1271;134426;-75
2022/06/09 07:31:05;;;;;;;21.00;18.80;;;;;;;18.93;94.03;95900.49;107129;1271;100962;-76
2022/06/09 07:33:40;;;;;;;19.80;17.20;;;;;;;18.80;94.29;95898.95;107082;1270;108216;-76
2022/06/09 07:36:14;;;;;;;20.00;17.90;;;;;;;18.77;94.80;95907.56;107507;1270;37710;-76
2022/06/09 07:38:46;;;;;;;20.20;17.70;;;;;;;18.80;95.39;95913.16;107155;1271;130361;-75
2022/06/09 07:41:20;;;;;;;19.20;16.00;;;;;;;18.89;95.52;95913.30;107371;1271;113063;-75
2022/06/09 07:43:52;;;;;;;19.10;16.80;;;;;;;18.98;95.49;95906.96;107535;1270;81024;-75
2022/06/09 07:46:23;;;;;;;18.50;16.40;;;;;;;18.99;95.22;95910.08;107615;1270;37919;-75
2022/06/09 07:48:54;;;;;;;17.10;15.30;;;;;;;19.03;95.33;95914.09;107413;1270;113001;-76
2022/06/09 07:51:26;;;;;;;18.60;15.30;;;;;;;19.03;94.52;95917.54;107443;1270;59144;-76
2022/06/09 07:53:58;;;;;;;17.00;15.30;;;;;;;18.96;94.20;95922.12;107307;1270;123806;-76
2022/06/09 07:56:32;;;;;;;18.60;16.70;;;;;;;18.86;94.93;95922.43;107456;1270;118288;-76
2022/06/09 07:59:06;;;;;;;18.10;16.20;;;;;;;18.69;95.02;95927.67;107322;1270;98866;-75
2022/06/09 08:01:38;;;;;;;17.30;15.50;;;;;;;18.52;95.34;95928.79;107535;1270;33852;-75
2022/06/09 08:04:09;;;;;;;16.70;14.90;;;;;;;18.47;95.82;95932.27;107350;1270;103352;-75
2022/06/09 08:06:40;;;;;;;18.50;15.50;;;;;;;18.49;96.36;95933.98;107551;1270;33743;-75
2022/06/09 08:09:12;;;;;;;16.90;15.20;;;;;;;18.48;96.60;95937.58;107487;1270;37559;-75
2022/06/09 08:11:45;;;;;;;16.80;15.10;;;;;;;18.48;96.92;95939.19;107211;1270;134957;-75
2022/06/09 08:14:16;;;;;;;16.90;15.00;;;;;;;18.48;96.96;95943.41;107518;1270;41455;-75
2022/06/09 08:16:47;;;;;;;16.60;14.90;;;;;;;18.47;96.87;95944.23;106992;1270;168147;-75
2022/06/09 08:19:19;;;;;;;16.20;14.30;;;;;;;18.50;97.01;95944.15;107292;1270;79606;-75
2022/06/09 08:21:50;;;;;;;18.00;16.10;;;;;;;18.55;96.95;95946.25;107121;1271;143971;-76
2022/06/09 08:24:22;;;;;;;18.20;14.70;;;;;;;18.59;96.87;95953.41;107138;1271;136439;-75
2022/06/09 08:26:53;;;;;;;16.90;14.40;;;;;;;18.63;96.37;95950.62;107311;1270;103676;-76
2022/06/09 08:29:26;;;;;;;15.90;14.20;;;;;;;18.76;96.44;95958.47;107007;1270;121754;-76
2022/06/09 08:31:58;;;;;;;15.60;13.70;;;;;;;18.88;96.19;95957.63;107147;1270;90090;-76
2022/06/09 08:34:29;;;;;;;14.10;12.60;;;;;;;18.89;95.32;95957.96;107084;1270;106292;-76
2022/06/09 08:37:01;;;;;;;15.10;13.00;;;;;;;18.88;95.32;95955.71;107106;1271;82007;-75
2022/06/09 08:39:33;;;;;;;15.30;13.30;;;;;;;18.96;95.72;95959.57;107002;1270;114535;-76
2022/06/09 08:42:28;;;;;;;15.60;13.90;;;;;;;19.03;95.24;95964.96;107173;1271;78958;-76
2022/06/09 08:45:04;;;;;;;15.60;14.00;;;;;;;19.12;95.04;95965.70;106956;1270;137119;-75
2022/06/09 08:47:38;;;;;;;17.00;15.30;;;;;;;19.24;94.44;95968.13;107128;1271;80093;-76
2022/06/09 08:50:17;;;;;;;16.40;14.50;;;;;;;19.36;94.29;95965.64;106908;1270;95912;-76
2022/06/09 08:52:53;;;;;;;16.30;14.60;;;;;;;19.40;93.82;95969.88;107183;1270;91290;-75
2022/06/09 08:55:32;;;;;;;16.80;15.00;;;;;;;19.46;93.62;95964.95;107008;1270;109527;-76
2022/06/09 08:58:12;;;;;;;17.90;16.00;;;;;;;19.66;93.80;95966.09;107125;1270;96087;-76
2022/06/09 09:00:46;;;;;;;16.90;15.10;;;;;;;19.89;93.41;95959.52;106964;1270;122574;-75
2022/06/09 09:03:27;;;;;;;16.40;14.80;;;;;;;20.17;93.01;95968.05;107124;1270;97779;-75
2022/06/09 09:06:00;;;;;;;;;;;;;;;20.51;92.96;95970.17;105938;1270;2052914;-76
2022/06/09 09:08:31;;;;;;;18.90;16.80;;;;;;;20.71;91.73;95969.84;107567;1270;36676;-76
2022/06/09 09:11:23;;;;;;;20.30;17.70;;;;;;;20.84;91.42;95973.06;107065;1270;152003;-76
2022/06/09 09:14:00;;;;;;;17.70;15.80;;;;;;;21.00;91.15;95969.79;107084;1270;94202;-76
2022/06/09 09:16:42;;;;;;;17.00;15.30;;;;;;;21.16;90.90;95971.10;107006;1271;110166;-76
2022/06/09 09:19:27;;;;;;;16.30;14.60;;;;;;;21.35;90.41;95968.03;107110;1270;112487;-76
2022/06/09 09:22:06;;;;;;;18.20;15.60;;;;;;;21.65;90.29;95964.05;107114;1270;90960;-76
2022/06/09 09:24:45;;;;;;;18.90;16.90;;;;;;;21.95;89.13;95963.37;107123;1270;106594;-76
2022/06/09 09:27:25;;;;;;;18.30;16.50;;;;;;;22.00;87.36;95965.05;107193;1270;115955;-76
2022/06/09 09:30:13;;;;;;;17.50;15.70;;;;;;;21.83;86.49;95969.71;107230;1270;88018;-76
2022/06/09 09:32:48;;;;;;;16.50;14.90;;;;;;;21.73;85.93;95969.58;107023;1271;131439;-76
2022/06/09 09:35:22;;;;;;;15.80;14.20;;;;;;;21.92;86.10;95968.89;107276;1270;73555;-76
2022/06/09 09:37:55;;;;;;;16.60;15.00;;;;;;;22.26;85.48;95967.92;107551;1270;80386;-76
2022/06/09 09:40:32;;;;;;;17.20;15.50;;;;;;;22.47;85.09;95967.53;107527;1271;35537;-75
2022/06/09 09:43:10;;;;;;;16.00;14.40;;;;;;;22.70;83.25;95966.67;106244;1268;1720393;-75
2022/06/09 09:45:46;;;;;;;17.80;15.90;;;;;;;22.67;82.70;95967.48;107516;1270;54307;-76
2022/06/09 09:48:35;;;;;;;16.60;14.90;;;;;;;22.99;83.40;95966.48;107472;1270;75035;-75
2022/06/09 09:51:12;;;;;;;17.30;15.50;;;;;;;22.93;80.22;95961.95;107411;1271;96375;-75
2022/06/09 09:53:55;;;;;;;15.90;14.20;;;;;;;22.90;81.55;95963.48;107449;1270;84873;-75
2022/06/09 09:56:34;;;;;;;16.60;14.90;;;;;;;23.22;81.56;95963.52;107603;1270;34122;-76
2022/06/09 09:59:21;;;;;;;16.60;14.80;;;;;;;23.30;81.25;95960.86;107470;1270;80638;-76
2022/06/09 10:10:29;;;;;;;17.20;15.40;;;;;;;24.19;78.70;95945.39;107356;1270;96093;-76
2022/06/09 10:13:01;;;;;;;15.70;14.10;;;;;;;24.05;78.29;95943.73;107474;1270;37177;-76
2022/06/09 10:15:32;;;;;;;14.30;12.80;;;;;;;24.34;79.32;95940.11;107438;1270;59456;-76
2022/06/09 10:18:10;;;;;;;14.40;13.00;;;;;;;24.74;77.74;95941.05;107469;1271;76528;-75
2022/06/09 10:20:48;;;;;;;12.30;11.10;;;;;;;24.97;76.59;95939.36;105915;1270;2078013;-76
2022/06/09 10:23:41;;;;;;;14.10;10.80;;;;;;;25.22;75.29;95936.50;107570;1270;33695;-76
2022/06/09 10:26:17;;;;;;;12.00;10.60;;;;;;;25.53;74.96;95934.05;107293;1271;127735;-76
2022/06/09 10:28:57;;;;;;;12.90;11.60;;;;;;;25.58;71.87;95934.12;107512;1270;71236;-76
2022/06/09 10:31:39;;;;;;;13.60;11.60;;;;;;;25.52;71.43;95933.05;107492;1270;126396;-76
2022/06/09 10:34:24;;;;;;;13.30;11.90;;;;;;;25.46;71.42;95930.96;107552;1270;43484;-76
2022/06/09 10:37:01;;;;;;;12.60;11.40;;;;;;;25.50;71.75;95929.88;107281;1270;109657;-76
2022/06/09 10:39:40;;;;;;;13.10;11.80;;;;;;;25.71;72.48;95927.73;107525;1271;38470;-76
2022/06/09 10:42:24;;;;;;;12.70;11.50;;;;;;;25.94;72.50;95927.90;107187;1270;143593;-76
2022/06/09 10:45:11;;;;;;;13.30;12.00;;;;;;;25.91;70.86;95929.08;107255;1270;77744;-76
2022/06/09 10:56:46;;;;;;;;;;;;;;;24.25;69.63;95924.61;107429;1271;66425;-76
2022/06/09 10:59:21;;;;;;;13.90;12.60;;;;;;;24.10;70.81;95925.73;107326;1270;154983;-75
2022/06/09 11:01:52;;;;;;;13.60;11.70;;;;;;;24.30;72.46;95927.33;107552;1270;56690;-76
2022/06/09 11:04:25;;;;;;;11.90;10.60;;;;;;;24.28;71.57;95933.98;107526;1270;65002;-75
2022/06/09 11:07:11;;;;;;;12.70;11.30;;;;;;;24.28;72.36;95933.52;107340;1271;128844;-76
2022/06/09 11:09:57;;;;;;;12.50;11.20;;;;;;;24.34;72.29;95934.09;107369;1270;139352;-76
2022/06/09 11:12:45;;;;;;;12.70;11.40;;;;;;;24.38;72.34;95933.19;107436;1270;119319;-76
2022/06/09 11:15:35;;;;;;;11.90;10.70;;;;;;;24.40;72.01;95931.48;107456;1271;69340;-75
2022/06/09 11:18:18;;;;;;;12.80;11.50;;;;;;;24.37;71.34;95926.91;107265;1271;117821;-75
2022/06/09 11:21:03;;;;;;;13.60;11.50;;;;;;;24.21;71.13;95928.30;107449;1271;54678;-75
2022/06/09 11:23:52;;;;;;;12.70;11.50;;;;;;;24.37;71.12;95929.76;107342;1270;81893;-75
2022/06/09 11:26:34;;;;;;;12.20;11.00;;;;;;;24.56;71.44;95934.37;107595;1270;38367;-76
2022/06/09 11:29:16;;;;;;;12.30;10.70;;;;;;;24.57;70.87;95930.81;107296;1270;113213;-75
2022/06/09 11:32:01;;;;;;;14.40;11.20;;;;;;;24.75;71.02;95925.02;107489;1270;38642;-76
2022/06/09 11:35:05;;;;;;;11.80;10.60;;;;;;;24.90;70.92;95924.02;107239;1270;103629;-76
2022/06/09 11:37:52;;;;;;;14.00;10.10;;;;;;;25.31;71.83;95919.81;107514;1270;71999;-76
2022/06/09 11:40:44;;;;;;;11.70;10.30;;;;;;;25.70;70.03;95923.16;107456;1270;75840;-76
2022/06/09 11:43:35;;;;;;;10.50;9.50;;;;;;;25.85;69.19;95916.84;107410;1270;48966;-76
2022/06/09 11:46:15;;;;;;;9.50;8.50;;;;;;;25.91;68.14;95917.05;107286;1271;99173;-76
2022/06/09 11:48:49;;;;;;;10.00;9.10;;;;;;;25.82;65.28;95917.48;107580;1270;53041;-76
2022/06/09 11:51:24;;;;;;;10.10;9.00;;;;;;;25.64;65.29;95910.83;106456;1270;1197325;-75
2022/06/09 11:54:00;;;;;;;10.10;9.10;;;;;;;25.48;66.15;95904.52;107504;1270;34125;-76
2022/06/09 11:56:36;;;;;;;9.30;8.40;;;;;;;25.25;65.73;95895.27;107362;1270;76910;-76
2022/06/09 11:59:19;;;;;;;10.70;9.70;;;;;;;24.98;65.86;95889.16;107483;1271;36893;-76
2022/06/09 12:02:20;;;;;;;10.30;9.30;;;;;;;24.81;66.87;95884.98;107553;1270;92381;-75
2022/06/09 12:05:17;;;;;;;9.20;7.90;;;;;;;24.92;65.96;95876.60;107562;1270;36212;-75
2022/06/09 12:08:28;;;;;;;9.60;8.10;;;;;;;25.04;64.42;95874.21;107323;1273;70583;-75
2022/06/09 12:11:07;;;;;;;10.20;8.10;;;;;;;25.22;65.85;95875.97;107049;1276;86421;-74
2022/06/09 12:13:54;;;;;;;7.40;6.70;;;;;;;25.43;64.26;95878.23;107069;1276;75939;-76
2022/06/09 12:16:41;;;;;;;6.90;6.20;;;;;;;25.51;61.96;95873.42;107366;1271;36638;-75
2022/06/09 12:19:27;;;;;;;7.90;6.70;;;;;;;25.50;60.88;95864.98;107523;1270;44432;-75
2022/06/09 12:22:20;;;;;;;8.70;6.90;;;;;;;25.61;61.95;95862.44;107564;1270;30288;-75